»·PEaware :: N850VJ KELP-KSAT

N850VJ :: KELP-KSAT

FLIGHT INFORMATION

Flight Status: Arrived
Operator: Privately registered:
United States
More flights under this callsign
Pilot: Andrew J. (13363)
Aircraft: Unknown
(TBM9)
More flights by this aircraft type
Origin: KELP El Paso Intl
United States
Destination: KSAT San Antonio Intl
United States
More flights between these airports :: More routes between these airports
Route: NEVUE3 FST J2 JCT STV1
File this flight plan on PilotEdge
Remarks: FIFE TRREEEEEE
Altitude:
(Current/Filed)
31,000ft
Speed:
(Current/Filed)
330kts
Departed: 22-Jan-18 10:19 PM
Arrived: 22-Jan-18 11:44 PM
Distance/Time
Traveled:
430nm/1:25
Distance/Time
To Go:
Arrived

Flight Plot

Page will automatically refresh every two minutes.

Flight plan parsing failed; only flown route is shown


Map Options




Map Legend


Flown Route
Filed Route
Departure Airport
Arrival Airport
Navaid (VOR, NDB)
Fix

Horizontal Profiles

Position Reports

Time Latitude Longitude Heading Altitude Ground
Speed
22-Jan-18 22:09 31.797968 -106.377084 260 3938ft 0kts
22-Jan-18 22:10 31.797968 -106.377084 260 3938ft 0kts
22-Jan-18 22:11 31.797968 -106.377084 260 3938ft 0kts
22-Jan-18 22:12 31.797968 -106.377084 260 3938ft 0kts
22-Jan-18 22:13 31.797968 -106.377084 260 3938ft 0kts
22-Jan-18 22:14 31.797968 -106.377084 260 3938ft 0kts
22-Jan-18 22:15 31.797968 -106.377084 260 3938ft 0kts
22-Jan-18 22:16 31.797968 -106.377084 260 3938ft 0kts
22-Jan-18 22:17 31.797968 -106.377084 260 3938ft 0kts
22-Jan-18 22:18 31.797967 -106.377093 260 3938ft 0kts
22-Jan-18 22:19 31.798452 -106.377373 351 3938ft 5kts
22-Jan-18 22:20 31.799864 -106.377854 272 3938ft 9kts
22-Jan-18 22:21 31.799942 -106.382243 265 3938ft 17kts
22-Jan-18 22:22 31.800259 -106.387985 8 3938ft 14kts
22-Jan-18 22:23 31.801067 -106.387874 2 3938ft 0kts
22-Jan-18 22:24 31.801955 -106.387671 68 3938ft 11kts
22-Jan-18 22:25 31.800142 -106.358883 95 4768ft 138kts
22-Jan-18 22:26 31.795257 -106.315151 94 7035ft 136kts
22-Jan-18 22:27 31.789436 -106.264422 97 8282ft 188kts
22-Jan-18 22:28 31.758877 -106.230447 141 10981ft 147kts
22-Jan-18 22:29 31.726090 -106.199935 135 12886ft 161kts
22-Jan-18 22:30 31.693332 -106.163066 139 15014ft 166kts
22-Jan-18 22:31 31.662699 -106.120779 133 16974ft 174kts
22-Jan-18 22:32 31.630992 -106.076409 134 18860ft 182kts
22-Jan-18 22:33 31.597838 -106.030223 135 20738ft 189kts
22-Jan-18 22:34 31.565727 -105.979348 129 22450ft 201kts
22-Jan-18 22:35 31.533839 -105.924251 130 24391ft 209kts
22-Jan-18 22:36 31.500534 -105.866704 131 26316ft 219kts
22-Jan-18 22:37 31.473673 -105.802942 105 27999ft 239kts
22-Jan-18 22:38 31.459978 -105.724993 106 29553ft 249kts
22-Jan-18 22:39 31.445926 -105.645114 107 30652ft 255kts
22-Jan-18 22:40 31.430724 -105.559844 107 31200ft 280kts
22-Jan-18 22:41 31.413656 -105.464615 106 31270ft 321kts
22-Jan-18 22:42 31.394442 -105.357101 105 31258ft 352kts
22-Jan-18 22:43 31.374033 -105.242548 106 31237ft 364kts
22-Jan-18 22:44 31.353185 -105.125704 106 31237ft 370kts
22-Jan-18 22:45 31.332098 -105.007822 105 31237ft 372kts
22-Jan-18 22:46 31.310786 -104.889112 105 31238ft 374kts
22-Jan-18 22:47 31.289397 -104.770475 105 31240ft 374kts
22-Jan-18 22:48 31.267836 -104.651442 105 31241ft 375kts
22-Jan-18 22:49 31.246128 -104.532182 105 31243ft 375kts
22-Jan-18 22:50 31.224300 -104.412864 105 31244ft 376kts
22-Jan-18 22:51 31.202510 -104.294311 106 31257ft 375kts
22-Jan-18 22:52 31.180630 -104.175926 106 31261ft 374kts
22-Jan-18 22:53 31.158733 -104.057272 107 31257ft 376kts
22-Jan-18 22:54 31.136314 -103.937525 107 31265ft 380kts
22-Jan-18 22:55 31.113540 -103.816427 107 31266ft 382kts
22-Jan-18 22:56 31.090680 -103.695462 107 31268ft 384kts
22-Jan-18 22:57 31.067546 -103.573665 107 31269ft 385kts
22-Jan-18 22:58 31.044317 -103.451999 107 31271ft 386kts
22-Jan-18 22:59 31.020948 -103.330135 108 31259ft 386kts
22-Jan-18 23:00 30.997481 -103.208522 108 31257ft 384kts
22-Jan-18 23:01 30.974003 -103.087529 108 31260ft 384kts
22-Jan-18 23:02 30.951144 -102.966018 102 31261ft 387kts
22-Jan-18 23:03 30.938588 -102.841338 101 31264ft 388kts
22-Jan-18 23:04 30.926005 -102.716570 101 31266ft 389kts
22-Jan-18 23:05 30.913316 -102.591860 101 31265ft 386kts
22-Jan-18 23:06 30.900583 -102.468181 101 31268ft 384kts
22-Jan-18 23:07 30.888035 -102.347656 102 31276ft 385kts
22-Jan-18 23:08 30.875136 -102.224676 102 31262ft 383kts
22-Jan-18 23:09 30.862174 -102.101873 102 31264ft 382kts
22-Jan-18 23:10 30.849055 -101.979848 102 31266ft 382kts
22-Jan-18 23:11 30.835821 -101.857361 102 31268ft 382kts
22-Jan-18 23:12 30.822419 -101.734403 102 31270ft 383kts
22-Jan-18 23:13 30.808908 -101.611543 102 31272ft 383kts
22-Jan-18 23:14 30.795316 -101.489010 102 31274ft 384kts
22-Jan-18 23:15 30.781547 -101.365954 102 31276ft 384kts
22-Jan-18 23:16 30.767807 -101.244057 103 31261ft 383kts
22-Jan-18 23:17 30.754131 -101.121838 105 31261ft 384kts
22-Jan-18 23:18 30.739932 -100.998744 105 31268ft 386kts
22-Jan-18 23:19 30.725631 -100.875695 105 31296ft 388kts
22-Jan-18 23:20 30.711053 -100.751182 105 31298ft 389kts
22-Jan-18 23:21 30.696357 -100.626573 105 31300ft 390kts
22-Jan-18 23:22 30.681539 -100.501892 105 31302ft 391kts
22-Jan-18 23:23 30.666522 -100.376531 105 31304ft 392kts
22-Jan-18 23:24 30.653011 -100.264437 105 31287ft 391kts
22-Jan-18 23:25 30.638091 -100.141758 105 31237ft 391kts
22-Jan-18 23:26 30.622829 -100.017221 105 31237ft 390kts
22-Jan-18 23:27 30.607446 -99.892723 105 31240ft 390kts
22-Jan-18 23:28 30.581358 -99.773957 121 31246ft 375kts
22-Jan-18 23:29 30.542739 -99.661440 122 31244ft 376kts
22-Jan-18 23:30 30.503969 -99.549201 122 31246ft 376kts
22-Jan-18 23:31 30.465056 -99.437234 122 31247ft 377kts
22-Jan-18 23:32 30.428185 -99.331619 122 31233ft 377kts
22-Jan-18 23:33 30.391043 -99.264182 153 31226ft 337kts
22-Jan-18 23:34 30.320043 -99.206409 159 31229ft 321kts
22-Jan-18 23:35 30.250176 -99.150704 159 29341ft 312kts
22-Jan-18 23:36 30.179625 -99.094609 158 27191ft 303kts
22-Jan-18 23:37 30.110738 -99.039990 158 25263ft 293kts
22-Jan-18 23:38 30.044676 -98.987736 158 23448ft 286kts
22-Jan-18 23:39 29.980064 -98.936762 157 21772ft 280kts
22-Jan-18 23:40 29.916814 -98.886951 157 20172ft 273kts
22-Jan-18 23:41 29.854983 -98.838383 156 18446ft 271kts
22-Jan-18 23:42 29.793609 -98.790220 155 16809ft 265kts
22-Jan-18 23:43 29.736884 -98.735504 138 15347ft 269kts
22-Jan-18 23:44 29.688241 -98.671528 138 13901ft 264kts
22-Jan-18 23:45 29.644493 -98.607703 117 11227ft 256kts
22-Jan-18 23:46 29.595660 -98.548305 145 7024ft 223kts
22-Jan-18 23:47 29.548914 -98.523702 170 4527ft 156kts
22-Jan-18 23:48 29.511785 -98.506432 133 2287ft 156kts
22-Jan-18 23:49 29.518795 -98.473585 17 1179ft 105kts
22-Jan-18 23:50 29.534511 -98.460034 296 812ft 28kts
22-Jan-18 23:51 29.534899 -98.465020 269 812ft 0kts
22-Jan-18 23:52 29.534899 -98.465020 269 812ft 0kts
22-Jan-18 23:53 29.534899 -98.465020 269 812ft 0kts

Navigation Log

Ident Type
Flight plan parsing failed, navigation log unavailable